»·PEaware :: N6693C KFSM-KNQA

N6693C :: KFSM-KNQA

FLIGHT INFORMATION

Flight Status: Arrived
Operator: Privately registered:
United States
More flights under this callsign
Pilot: Chase C. (10526)
Aircraft: CIRRUS SR-22
(SR22)
More flights by this aircraft type
Origin: KFSM Ft Smith Regl
United States
Destination: KNQA Millington Mun
United States
More flights between these airports :: More routes between these airports
Route:
File this flight plan on PilotEdge
Remarks:
Altitude:
(Current/Filed)
7,500ft
Speed:
(Current/Filed)
172kts
Departed: 22-Nov-18 09:36 PM
Arrived: 22-Nov-18 10:49 PM
Distance/Time
Traveled:
220nm/1:12
Distance/Time
To Go:
Arrived

Flight Plot

Page will automatically refresh every two minutes.

Flight plan parsing failed; only flown route is shown


Map Options




Map Legend


Flown Route
Filed Route
Departure Airport
Arrival Airport
Navaid (VOR, NDB)
Fix

Horizontal Profiles

Position Reports

Time Latitude Longitude Heading Altitude Ground
Speed
22-Nov-18 21:38 35.342729 -94.260137 86 3959ft 125kts
22-Nov-18 21:39 35.343705 -94.216870 86 5542ft 131kts
22-Nov-18 21:40 35.344716 -94.171282 87 7105ft 138kts
22-Nov-18 21:41 35.345804 -94.117097 88 7579ft 182kts
22-Nov-18 21:42 35.346972 -94.053220 88 7597ft 189kts
22-Nov-18 21:43 35.348197 -93.989058 88 7614ft 190kts
22-Nov-18 21:44 35.349409 -93.924414 88 7627ft 190kts
22-Nov-18 21:45 35.350592 -93.859417 88 7635ft 190kts
22-Nov-18 21:46 35.351735 -93.794734 88 7635ft 190kts
22-Nov-18 21:47 35.352854 -93.729475 88 7630ft 191kts
22-Nov-18 21:48 35.353937 -93.664431 88 7625ft 191kts
22-Nov-18 21:49 35.354985 -93.598982 88 7620ft 192kts
22-Nov-18 21:50 35.355934 -93.537654 88 7620ft 192kts
22-Nov-18 21:51 35.356916 -93.472261 88 7610ft 192kts
22-Nov-18 21:52 35.357866 -93.406676 88 7609ft 192kts
22-Nov-18 21:53 35.358772 -93.341811 88 7608ft 192kts
22-Nov-18 21:54 35.359633 -93.277559 88 7604ft 192kts
22-Nov-18 21:55 35.360474 -93.212090 88 7604ft 192kts
22-Nov-18 21:56 35.361283 -93.146708 88 7605ft 192kts
22-Nov-18 21:57 35.362049 -93.081531 88 7609ft 191kts
22-Nov-18 21:58 35.362772 -93.016217 88 7612ft 191kts
22-Nov-18 21:59 35.363469 -92.951223 88 7615ft 190kts
22-Nov-18 22:00 35.364131 -92.886417 88 7617ft 190kts
22-Nov-18 22:01 35.364759 -92.821796 88 7618ft 189kts
22-Nov-18 22:02 35.365344 -92.757099 88 7607ft 189kts
22-Nov-18 22:03 35.365903 -92.692641 88 7608ft 189kts
22-Nov-18 22:04 35.366425 -92.628096 88 7609ft 189kts
22-Nov-18 22:05 35.366911 -92.563667 88 7610ft 189kts
22-Nov-18 22:06 35.367363 -92.499316 88 7611ft 189kts
22-Nov-18 22:07 35.367780 -92.434849 88 7612ft 189kts
22-Nov-18 22:08 35.368163 -92.370400 88 7605ft 189kts
22-Nov-18 22:09 35.368501 -92.306566 89 7449ft 191kts
22-Nov-18 22:10 35.368839 -92.241638 89 7389ft 191kts
22-Nov-18 22:11 35.369108 -92.176280 89 7340ft 192kts
22-Nov-18 22:12 35.369355 -92.111178 89 7357ft 190kts
22-Nov-18 22:13 35.369571 -92.046335 89 7415ft 189kts
22-Nov-18 22:14 35.369748 -91.982288 89 7473ft 189kts
22-Nov-18 22:15 35.369905 -91.917647 88 7530ft 189kts
22-Nov-18 22:16 35.370014 -91.852528 89 7537ft 191kts
22-Nov-18 22:17 35.370083 -91.787205 89 7537ft 191kts
22-Nov-18 22:18 35.370113 -91.721989 89 7537ft 191kts
22-Nov-18 22:19 35.370117 -91.656753 89 7538ft 191kts
22-Nov-18 22:20 35.370092 -91.591564 89 7537ft 191kts
22-Nov-18 22:21 35.370049 -91.537089 89 7537ft 191kts
22-Nov-18 22:22 35.369918 -91.460678 89 7538ft 191kts
22-Nov-18 22:23 35.369780 -91.395347 89 7538ft 191kts
22-Nov-18 22:24 35.369643 -91.341510 89 7536ft 191kts
22-Nov-18 22:25 35.369419 -91.276122 89 7536ft 191kts
22-Nov-18 22:26 35.369193 -91.210964 89 7536ft 191kts
22-Nov-18 22:27 35.368880 -91.134703 89 7539ft 191kts
22-Nov-18 22:28 35.368625 -91.080392 89 7541ft 191kts
22-Nov-18 22:29 35.368285 -91.015054 89 7544ft 191kts
22-Nov-18 22:30 35.367910 -90.949877 89 7546ft 191kts
22-Nov-18 22:31 35.367499 -90.884717 89 7546ft 191kts
22-Nov-18 22:32 35.367054 -90.819403 89 7547ft 191kts
22-Nov-18 22:33 35.366513 -90.754150 90 7547ft 191kts
22-Nov-18 22:34 35.366032 -90.688970 89 7514ft 192kts
22-Nov-18 22:35 35.365470 -90.624154 89 7274ft 181kts
22-Nov-18 22:36 35.364928 -90.564730 89 6670ft 169kts
22-Nov-18 22:37 35.364422 -90.507302 89 6029ft 168kts
22-Nov-18 22:38 35.363871 -90.449878 89 5314ft 167kts
22-Nov-18 22:39 35.363294 -90.393290 89 4596ft 164kts
22-Nov-18 22:40 35.362686 -90.338453 89 3886ft 161kts
22-Nov-18 22:41 35.362094 -90.283395 90 3163ft 160kts
22-Nov-18 22:42 35.361483 -90.229641 90 2527ft 152kts
22-Nov-18 22:43 35.360865 -90.179917 90 2519ft 145kts
22-Nov-18 22:44 35.360288 -90.133276 90 2521ft 144kts
22-Nov-18 22:45 35.359764 -90.092442 90 2522ft 144kts
22-Nov-18 22:46 35.359003 -90.038904 94 2525ft 144kts
22-Nov-18 22:47 35.346278 -89.991832 110 2219ft 140kts
22-Nov-18 22:48 35.334851 -89.952465 97 1874ft 93kts
22-Nov-18 22:49 35.332393 -89.922275 88 1725ft 92kts
22-Nov-18 22:50 35.336494 -89.892081 60 1231ft 82kts
22-Nov-18 22:51 35.351594 -89.875349 38 281ft 56kts
22-Nov-18 22:52 35.355080 -89.868722 160 298ft 25kts
22-Nov-18 22:53 35.349109 -89.868036 92 292ft 10kts
22-Nov-18 22:54 35.349247 -89.867616 152 293ft 0kts
22-Nov-18 22:55 35.349247 -89.867616 152 293ft 0kts

Navigation Log

Ident Type
Flight plan parsing failed, navigation log unavailable